Time;durP1;ratioP1;P1;durP2;ratioP2;P2;SDS_P1;SDS_P2;PMS_P1;PMS_P2;Temp;Humidity;BMP_temperature;BMP_pressure;BME280_temperature;BME280_humidity;BME280_pressure;Samples;Min_cycle;Max_cycle;Signal;HPM_P1;HPM_P2
2022/10/25 00:00:41;;;;;;;0.15;0.15;;;;;;;15.99;73.56;101130.94;5083674;28;20033;-77
2022/10/25 00:03:08;;;;;;;0.88;0.40;;;;;;;15.97;73.23;101128.28;5083101;28;20055;-78
2022/10/25 00:05:35;;;;;;;0.10;0.10;;;;;;;16.04;73.17;101139.66;5085257;28;20052;-78
2022/10/25 00:08:02;;;;;;;0.10;0.10;;;;;;;16.00;73.24;101133.53;5082707;28;20031;-78
2022/10/25 00:10:28;;;;;;;0.20;0.20;;;;;;;15.97;73.50;101143.47;5081260;28;20052;-78
2022/10/25 00:12:55;;;;;;;0.10;0.10;;;;;;;16.05;73.00;101141.41;5089414;28;20032;-78
2022/10/25 00:15:21;;;;;;;0.40;0.40;;;;;;;15.99;73.32;101138.94;5085134;28;20036;-78
2022/10/25 00:17:47;;;;;;;0.65;0.65;;;;;;;16.03;73.18;101143.25;5080839;28;20067;-78
2022/10/25 00:20:13;;;;;;;0.15;0.15;;;;;;;15.98;73.40;101139.88;5083926;28;20024;-78
2022/10/25 00:22:40;;;;;;;0.43;0.43;;;;;;;15.98;73.12;101146.09;5085483;28;20025;-78
2022/10/25 00:25:07;;;;;;;0.10;0.10;;;;;;;16.01;73.10;101145.97;5088283;28;20511;-78
2022/10/25 00:27:34;;;;;;;0.20;0.20;;;;;;;15.96;73.42;101147.06;5083011;28;20104;-78
2022/10/25 00:30:01;;;;;;;0.10;0.10;;;;;;;15.99;73.58;101155.84;5091765;28;20046;-78
2022/10/25 00:32:27;;;;;;;0.20;0.20;;;;;;;16.05;73.47;101154.75;5086802;28;20092;-78
2022/10/25 00:34:53;;;;;;;0.20;0.20;;;;;;;16.00;73.29;101159.41;5087998;28;20060;-78
2022/10/25 00:37:19;;;;;;;0.10;0.10;;;;;;;16.04;73.36;101161.03;5086398;28;20025;-78
2022/10/25 00:39:46;;;;;;;1.67;1.58;;;;;;;16.09;73.17;101161.72;5090157;28;20032;-78
2022/10/25 00:42:19;;;;;;;0.10;0.10;;;;;;;16.05;73.24;101168.13;5092849;28;20024;-78
2022/10/25 00:44:50;;;;;;;0.10;0.10;;;;;;;16.07;73.19;101158.22;5088174;28;20025;-78
2022/10/25 00:47:32;;;;;;;0.10;0.10;;;;;;;16.15;73.04;101166.84;5081291;28;20021;-78
2022/10/25 00:50:08;;;;;;;0.57;0.57;;;;;;;16.12;72.77;101161.59;5082838;28;20031;-77
2022/10/25 00:52:37;;;;;;;0.10;0.10;;;;;;;16.11;72.77;101162.53;5091275;28;20024;-77
2022/10/25 00:55:06;;;;;;;0.10;0.10;;;;;;;16.09;72.83;101159.03;5085133;28;20040;-78
2022/10/25 00:57:40;;;;;;;0.10;0.10;;;;;;;16.08;73.11;101165.31;5078397;28;20721;-79
2022/10/25 01:00:07;;;;;;;2.08;1.95;;;;;;;16.07;72.91;101166.25;5085578;28;20038;-79
2022/10/25 01:02:33;;;;;;;16.25;4.55;;;;;;;16.00;72.89;101160.25;5083634;28;20047;-79
2022/10/25 01:05:00;;;;;;;1.77;1.67;;;;;;;16.05;73.07;101167.22;5087802;28;20038;-79
2022/10/25 01:07:26;;;;;;;0.85;0.85;;;;;;;15.96;73.12;101180.03;5064672;28;20040;-79
2022/10/25 01:09:52;;;;;;;0.10;0.10;;;;;;;15.95;73.04;101172.94;5067778;28;20029;-78
2022/10/25 01:12:18;;;;;;;0.32;0.32;;;;;;;15.87;73.08;101182.16;5072340;28;20048;-79
2022/10/25 01:14:48;;;;;;;0.10;0.10;;;;;;;15.88;73.00;101181.25;5073891;28;20040;-78
2022/10/25 01:20:21;;;;;;;0.47;0.47;;;;;;;15.90;73.08;101179.38;5070985;28;20395;-78
2022/10/25 01:28:38;;;;;;;5.35;1.65;;;;;;;15.78;73.16;101181.53;5109404;27;20404;-79
2022/10/25 01:31:23;;;;;;;0.43;0.43;;;;;;;15.74;73.38;101187.91;5079641;28;20119;-78
2022/10/25 01:34:01;;;;;;;0.10;0.10;;;;;;;15.77;73.28;101182.44;5076251;28;20025;-79
2022/10/25 01:39:26;;;;;;;0.10;0.10;;;;;;;15.68;73.68;101190.81;5067047;28;20702;-79
2022/10/25 01:44:54;;;;;;;0.15;0.15;;;;;;;15.67;73.74;101197.94;5102253;27;20780;-78
2022/10/25 01:47:26;;;;;;;0.10;0.10;;;;;;;15.72;73.67;101191.56;5082871;28;20145;-78
2022/10/25 01:50:03;;;;;;;0.10;0.10;;;;;;;15.70;74.08;101191.59;5082433;28;20031;-79
2022/10/25 01:52:30;;;;;;;0.10;0.10;;;;;;;15.72;74.01;101196.91;5087136;28;20024;-78
2022/10/25 01:54:56;;;;;;;0.10;0.10;;;;;;;15.64;74.37;101192.72;5087503;28;20036;-77
2022/10/25 01:57:57;;;;;;;0.10;0.10;;;;;;;15.74;74.04;101198.59;5086184;28;20035;-78
2022/10/25 02:00:24;;;;;;;0.10;0.10;;;;;;;15.67;74.19;101197.94;5083172;28;20480;-78
2022/10/25 02:06:15;;;;;;;0.10;0.10;;;;;;;15.66;74.43;101198.00;5059636;28;20470;-78
2022/10/25 02:08:48;;;;;;;0.20;0.20;;;;;;;15.69;74.56;101197.91;5041686;28;20044;-79
2022/10/25 02:11:23;;;;;;;0.10;0.10;;;;;;;15.64;74.53;101208.75;5043910;28;20021;-78
2022/10/25 02:16:37;;;;;;;0.10;0.10;;;;;;;15.60;74.94;101204.44;5101579;27;20428;-79
2022/10/25 02:19:07;;;;;;;0.10;0.10;;;;;;;15.61;74.66;101216.00;5084492;28;20486;-79
2022/10/25 02:21:35;;;;;;;0.68;0.68;;;;;;;15.56;74.77;101209.94;5077751;28;20071;-78
2022/10/25 02:24:10;;;;;;;0.10;0.10;;;;;;;15.52;75.01;101214.50;5081547;28;20517;-79
2022/10/25 02:26:37;;;;;;;0.10;0.10;;;;;;;15.54;74.70;101215.34;5079846;28;20562;-79
2022/10/25 02:29:05;;;;;;;0.10;0.10;;;;;;;15.51;74.74;101210.97;5081519;28;20024;-79
2022/10/25 02:31:35;;;;;;;0.10;0.10;;;;;;;15.47;74.83;101220.00;5080908;28;20032;-79
2022/10/25 02:34:01;;;;;;;0.10;0.10;;;;;;;15.48;74.85;101213.75;5080869;28;20025;-78
2022/10/25 02:36:27;;;;;;;0.65;0.65;;;;;;;15.52;74.69;101218.03;5083232;28;20032;-79
2022/10/25 02:38:54;;;;;;;0.10;0.10;;;;;;;15.49;74.65;101218.16;5082344;28;20047;-79
2022/10/25 02:41:21;;;;;;;0.20;0.20;;;;;;;15.47;74.64;101217.34;5087061;28;20451;-78
2022/10/25 02:43:50;;;;;;;0.10;0.10;;;;;;;15.49;74.56;101222.66;5078930;28;20025;-79
2022/10/25 02:46:19;;;;;;;0.10;0.10;;;;;;;15.44;74.82;101209.44;5080227;28;20045;-79
2022/10/25 02:48:46;;;;;;;0.20;0.20;;;;;;;15.49;74.78;101217.31;5082903;28;20032;-79
2022/10/25 02:51:13;;;;;;;0.10;0.10;;;;;;;15.43;74.59;101223.72;5081661;28;20039;-79
2022/10/25 02:53:39;;;;;;;0.10;0.10;;;;;;;15.40;74.89;101217.59;5084578;28;20513;-79
2022/10/25 02:56:09;;;;;;;0.08;0.08;;;;;;;15.44;74.47;101220.13;5078614;28;20028;-80
2022/10/25 02:58:37;;;;;;;0.40;0.40;;;;;;;15.38;74.74;101215.00;5082552;28;20101;-80
2022/10/25 03:01:04;;;;;;;0.17;0.17;;;;;;;15.36;74.52;101230.19;5076213;28;20024;-80
2022/10/25 03:03:31;;;;;;;0.10;0.10;;;;;;;15.37;74.49;101229.25;5086273;28;20490;-79
2022/10/25 03:05:57;;;;;;;0.10;0.10;;;;;;;15.32;74.62;101233.88;5084669;28;20024;-79
2022/10/25 03:08:24;;;;;;;0.10;0.10;;;;;;;15.26;75.10;101237.63;5080234;28;20036;-79
2022/10/25 03:10:51;;;;;;;0.10;0.10;;;;;;;15.27;75.01;101233.19;5085855;28;20122;-79
2022/10/25 03:13:17;;;;;;;0.10;0.10;;;;;;;15.19;75.15;101230.78;5081873;28;20032;-79
2022/10/25 03:15:44;;;;;;;0.10;0.10;;;;;;;15.18;75.14;101235.22;5081395;28;20028;-79
2022/10/25 03:18:12;;;;;;;0.10;0.10;;;;;;;15.16;75.30;101242.38;5080851;28;20020;-79
2022/10/25 03:20:39;;;;;;;0.10;0.10;;;;;;;15.14;75.11;101241.59;5081441;28;20445;-79
2022/10/25 03:23:05;;;;;;;0.20;0.20;;;;;;;15.17;75.00;101245.94;5082934;28;20115;-79
2022/10/25 03:25:31;;;;;;;0.10;0.10;;;;;;;15.14;75.01;101252.25;5082591;28;20023;-78
2022/10/25 03:28:01;;;;;;;0.10;0.10;;;;;;;15.13;74.95;101247.84;5072619;28;20111;-79
2022/10/25 03:30:28;;;;;;;0.10;0.10;;;;;;;15.09;74.99;101251.53;5061795;28;20031;-78
2022/10/25 03:32:55;;;;;;;0.10;0.10;;;;;;;15.07;74.93;101256.03;5071724;28;20021;-78
2022/10/25 03:35:21;;;;;;;0.10;0.10;;;;;;;15.00;75.19;101262.50;5069261;28;20067;-78
2022/10/25 03:37:48;;;;;;;0.10;0.10;;;;;;;14.98;75.39;101269.69;5071158;28;20112;-79
2022/10/25 03:40:15;;;;;;;0.55;0.55;;;;;;;14.96;75.77;101271.53;5072874;28;20509;-79
2022/10/25 03:42:41;;;;;;;0.10;0.10;;;;;;;14.90;75.81;101266.38;5069914;28;20095;-79
2022/10/25 03:45:08;;;;;;;0.10;0.10;;;;;;;14.90;75.64;101271.72;5066848;28;20458;-78
2022/10/25 03:47:34;;;;;;;0.10;0.10;;;;;;;14.86;75.98;101271.81;5067386;28;20025;-79
2022/10/25 03:50:00;;;;;;;0.10;0.10;;;;;;;14.82;76.35;101280.81;5064441;28;20088;-79
2022/10/25 03:52:27;;;;;;;0.10;0.10;;;;;;;14.83;76.25;101293.25;5069075;28;20093;-78
2022/10/25 03:54:53;;;;;;;0.10;0.10;;;;;;;14.84;76.25;101294.13;5066289;28;20055;-79
2022/10/25 03:57:19;;;;;;;0.10;0.10;;;;;;;14.72;77.15;101300.72;5056845;28;20037;-79
2022/10/25 03:59:45;;;;;;;2.00;1.90;;;;;;;14.80;76.72;101292.47;5057809;28;20065;-78
2022/10/25 04:02:12;;;;;;;0.10;0.10;;;;;;;14.79;76.67;101291.59;5068206;28;20127;-78
2022/10/25 04:04:38;;;;;;;0.10;0.10;;;;;;;14.80;76.10;101288.00;5063485;28;20024;-78
2022/10/25 04:07:04;;;;;;;0.10;0.10;;;;;;;14.80;76.67;101288.00;5069017;28;20085;-78
2022/10/25 04:09:30;;;;;;;0.10;0.10;;;;;;;14.83;76.74;101289.72;5066035;28;20513;-77
2022/10/25 04:11:56;;;;;;;0.10;0.10;;;;;;;14.86;76.25;101290.47;5065032;28;20029;-78
2022/10/25 04:14:23;;;;;;;0.10;0.10;;;;;;;14.82;76.73;101299.50;5063918;28;20045;-78
2022/10/25 04:16:49;;;;;;;0.10;0.10;;;;;;;14.88;76.66;101288.66;5064657;28;20441;-77
2022/10/25 04:19:15;;;;;;;0.10;0.10;;;;;;;14.85;76.71;101296.75;5068354;28;20512;-78
2022/10/25 04:21:41;;;;;;;0.10;0.10;;;;;;;14.84;76.98;101292.34;5067028;28;20086;-78
2022/10/25 04:24:07;;;;;;;0.10;0.10;;;;;;;14.88;76.60;101291.31;5062233;28;20130;-78
2022/10/25 04:26:35;;;;;;;0.10;0.10;;;;;;;14.91;76.48;101300.16;5055087;28;20028;-79
2022/10/25 04:29:03;;;;;;;0.95;0.95;;;;;;;14.87;76.74;101299.38;5056329;28;20099;-79
2022/10/25 04:31:29;;;;;;;0.10;0.10;;;;;;;14.93;76.38;101314.31;5066192;28;20108;-79
2022/10/25 04:33:56;;;;;;;0.10;0.10;;;;;;;14.91;75.92;101310.81;5057021;28;20121;-79
2022/10/25 04:36:22;;;;;;;0.40;0.40;;;;;;;14.88;76.17;101322.47;5054213;28;20052;-80
2022/10/25 04:38:49;;;;;;;0.20;0.20;;;;;;;14.88;76.38;101322.47;5065634;28;20108;-78
2022/10/25 04:41:16;;;;;;;0.10;0.10;;;;;;;14.94;76.48;101324.06;5066538;28;20035;-78
2022/10/25 04:43:42;;;;;;;0.10;0.10;;;;;;;15.01;76.25;101325.63;5053865;28;20036;-78
2022/10/25 04:46:08;;;;;;;0.10;0.10;;;;;;;15.08;76.27;101329.84;5052758;28;20025;-78
2022/10/25 04:48:37;;;;;;;0.10;0.10;;;;;;;15.06;76.39;101339.69;5065970;28;20032;-78
2022/10/25 04:51:04;;;;;;;0.10;0.10;;;;;;;15.13;76.44;101343.94;5045647;28;20486;-79
2022/10/25 04:53:30;;;;;;;0.38;0.38;;;;;;;15.20;76.46;101340.16;5057951;28;20048;-78
2022/10/25 04:58:34;;;;;;;0.10;0.10;;;;;;;15.25;76.27;101344.47;5093148;28;20912;-78
2022/10/25 05:01:03;;;;;;;0.20;0.20;;;;;;;15.31;75.82;101352.28;5069933;28;20082;-78
2022/10/25 05:03:30;;;;;;;0.80;0.80;;;;;;;15.34;75.84;101344.19;5073056;28;20031;-78
2022/10/25 05:06:05;;;;;;;0.10;0.10;;;;;;;15.37;75.68;101352.09;5090260;28;20074;-78
2022/10/25 05:08:31;;;;;;;0.43;0.43;;;;;;;15.36;75.86;101350.31;5083042;28;20029;-77
2022/10/25 05:10:57;;;;;;;0.43;0.43;;;;;;;15.42;75.39;101360.81;5082385;28;20044;-78
2022/10/25 05:13:23;;;;;;;0.10;0.10;;;;;;;15.46;75.26;101357.09;5074918;28;20041;-77
2022/10/25 05:15:57;;;;;;;0.10;0.10;;;;;;;15.48;75.33;101355.28;5075738;28;20059;-78
2022/10/25 05:18:24;;;;;;;0.20;0.20;;;;;;;15.48;75.10;101355.28;5085057;28;20232;-78
2022/10/25 05:21:00;;;;;;;0.10;0.10;;;;;;;15.52;74.66;101345.38;5069678;28;20037;-78
2022/10/25 05:23:27;;;;;;;0.10;0.10;;;;;;;15.43;74.96;101354.56;5077397;28;20134;-78
2022/10/25 05:26:04;;;;;;;0.65;0.65;;;;;;;15.43;74.99;101359.03;5082342;28;20078;-78
2022/10/25 05:28:30;;;;;;;0.10;0.10;;;;;;;15.33;74.57;101358.44;5077305;28;20055;-78
2022/10/25 05:30:56;;;;;;;0.20;0.20;;;;;;;15.32;74.52;101365.56;5077154;28;20040;-78
2022/10/25 05:33:22;;;;;;;2.67;0.90;;;;;;;15.33;74.62;101363.78;5078594;28;20028;-78
2022/10/25 05:35:48;;;;;;;0.20;0.20;;;;;;;15.33;74.98;101361.97;5089605;28;20574;-78
2022/10/25 05:38:14;;;;;;;1.48;1.38;;;;;;;15.42;74.72;101374.16;5079670;28;20546;-78
2022/10/25 05:40:40;;;;;;;0.10;0.10;;;;;;;15.31;74.90;101373.63;5081101;28;20059;-78
2022/10/25 05:43:06;;;;;;;0.08;0.08;;;;;;;15.45;74.90;101382.09;5083113;28;20029;-78
2022/10/25 05:45:33;;;;;;;0.10;0.10;;;;;;;15.44;74.14;101390.13;5065374;28;20044;-78
2022/10/25 05:47:59;;;;;;;0.20;0.20;;;;;;;15.48;74.48;101391.81;5067448;28;20026;-78
2022/10/25 05:50:25;;;;;;;0.32;0.32;;;;;;;15.47;74.47;101390.91;5055616;28;20116;-79
2022/10/25 05:52:52;;;;;;;0.10;0.10;;;;;;;15.53;74.19;101390.72;5053415;28;20030;-78
2022/10/25 05:55:18;;;;;;;0.77;0.77;;;;;;;15.53;74.69;101389.84;5069990;28;20025;-78
2022/10/25 05:57:50;;;;;;;0.10;0.10;;;;;;;15.52;74.30;101393.44;5067114;28;20029;-78
2022/10/25 06:00:16;;;;;;;;;;;;;;;15.63;74.09;101403.78;5071736;28;20021;-78
2022/10/25 06:02:42;;;;;;;0.28;0.28;;;;;;;15.57;74.05;101398.66;5074634;28;19917;-78
2022/10/25 06:05:08;;;;;;;0.47;0.47;;;;;;;15.53;74.16;101395.19;5066200;28;20044;-78
2022/10/25 06:07:35;;;;;;;0.10;0.10;;;;;;;15.50;74.14;101401.50;5071887;28;20024;-79
2022/10/25 06:10:01;;;;;;;0.20;0.20;;;;;;;15.44;73.91;101395.47;5050760;28;20389;-79
2022/10/25 06:12:27;;;;;;;0.10;0.10;;;;;;;15.44;74.14;101396.38;5058792;28;20049;-78
2022/10/25 06:14:53;;;;;;;0.38;0.32;;;;;;;15.41;74.29;101400.94;5059076;28;20036;-79
2022/10/25 06:17:19;;;;;;;0.30;0.30;;;;;;;15.33;74.28;101414.53;5058414;28;20400;-79
2022/10/25 06:19:45;;;;;;;0.30;0.30;;;;;;;15.37;74.31;101408.16;5054486;28;20033;-78
2022/10/25 06:22:11;;;;;;;0.57;0.40;;;;;;;15.41;74.10;101428.47;5055909;28;20040;-78
2022/10/25 06:24:37;;;;;;;0.68;0.68;;;;;;;15.29;74.23;101418.19;5055021;28;20025;-79
2022/10/25 06:27:03;;;;;;;0.10;0.10;;;;;;;15.20;74.44;101420.22;5053029;28;20575;-79
2022/10/25 06:29:30;;;;;;;0.10;0.10;;;;;;;15.19;74.16;101426.47;5055058;28;20086;-78
2022/10/25 06:31:56;;;;;;;0.10;0.10;;;;;;;15.17;74.31;101425.63;5070663;28;20035;-78
2022/10/25 06:34:22;;;;;;;0.45;0.45;;;;;;;15.16;74.24;101423.88;5063232;28;20529;-79
2022/10/25 06:36:48;;;;;;;0.65;0.65;;;;;;;15.11;74.44;101423.16;5060131;28;20467;-78
2022/10/25 06:39:14;;;;;;;0.10;0.10;;;;;;;15.08;74.20;101433.94;5055982;28;20516;-78
2022/10/25 06:41:40;;;;;;;0.10;0.10;;;;;;;15.05;74.56;101431.34;5061371;28;20040;-79
2022/10/25 06:44:06;;;;;;;0.20;0.20;;;;;;;15.07;74.73;101428.66;5070379;28;20024;-78
2022/10/25 06:46:35;;;;;;;0.00;0.00;;;;;;;15.07;74.68;101432.19;5056632;28;20025;-79
2022/10/25 06:49:04;;;;;;;0.20;0.20;;;;;;;15.07;74.79;101440.19;5041206;28;20562;-78
2022/10/25 06:51:32;;;;;;;0.20;0.20;;;;;;;15.08;74.60;101441.94;5039126;28;20029;-78
2022/10/25 06:54:00;;;;;;;0.20;0.20;;;;;;;15.07;74.47;101452.66;5056067;28;20032;-78
2022/10/25 06:56:27;;;;;;;0.10;0.10;;;;;;;15.04;74.82;101448.25;5057377;28;20060;-79
2022/10/25 06:58:55;;;;;;;0.82;0.82;;;;;;;15.03;74.95;101463.41;5049327;28;20508;-78
2022/10/25 07:01:22;;;;;;;0.40;0.40;;;;;;;15.09;74.97;101465.06;5052348;28;20044;-78
2022/10/25 07:03:49;;;;;;;0.10;0.10;;;;;;;15.07;75.21;101472.22;5047473;28;20432;-78
2022/10/25 07:06:18;;;;;;;0.88;0.88;;;;;;;15.14;75.17;101475.56;5036163;28;20493;-78
2022/10/25 07:08:45;;;;;;;0.38;0.38;;;;;;;15.19;75.12;101471.84;5049975;28;20085;-78
2022/10/25 07:11:15;;;;;;;0.20;0.20;;;;;;;15.25;75.01;101469.94;5046499;28;20036;-78
2022/10/25 07:13:41;;;;;;;0.17;0.17;;;;;;;15.26;74.73;101477.03;5047807;28;20025;-78
2022/10/25 07:16:09;;;;;;;0.70;0.45;;;;;;;15.27;74.61;101478.78;5046918;28;20037;-78
2022/10/25 07:18:36;;;;;;;0.10;0.10;;;;;;;15.25;74.50;101485.94;5041392;28;20036;-78
2022/10/25 07:21:06;;;;;;;0.75;0.75;;;;;;;15.29;74.53;101482.25;5055183;28;20124;-78
2022/10/25 07:23:33;;;;;;;0.20;0.20;;;;;;;15.29;74.44;101488.50;5054417;28;20074;-78
2022/10/25 07:25:59;;;;;;;0.30;0.30;;;;;;;15.28;74.31;101492.06;5057791;28;20029;-78
2022/10/25 07:28:26;;;;;;;0.30;0.30;;;;;;;15.31;74.47;101483.09;5066258;28;20561;-78
2022/10/25 07:30:52;;;;;;;0.20;0.20;;;;;;;15.33;74.69;101489.28;5061796;28;20052;-78
2022/10/25 07:33:19;;;;;;;0.10;0.10;;;;;;;15.30;74.57;101486.69;5053759;28;20360;-79
2022/10/25 07:35:46;;;;;;;0.10;0.10;;;;;;;15.29;74.58;101498.28;5037225;28;20083;-80
2022/10/25 07:38:13;;;;;;;4.57;0.75;;;;;;;15.17;74.68;101497.72;5046229;28;20028;-79
2022/10/25 07:40:39;;;;;;;0.30;0.30;;;;;;;15.21;74.54;101490.50;5064160;28;20495;-79
2022/10/25 07:43:06;;;;;;;0.10;0.10;;;;;;;15.25;74.50;101504.63;5074315;28;20086;-78
2022/10/25 07:45:32;;;;;;;0.30;0.30;;;;;;;15.16;74.69;101503.09;5068488;28;20038;-78
2022/10/25 07:47:58;;;;;;;0.40;0.40;;;;;;;15.22;74.67;101502.94;5066747;28;20381;-78
2022/10/25 07:50:24;;;;;;;0.20;0.20;;;;;;;15.26;74.84;101504.56;5073301;28;20119;-78
2022/10/25 07:52:50;;;;;;;0.03;0.03;;;;;;;15.26;74.42;101514.41;5064006;28;20511;-78
2022/10/25 07:55:17;;;;;;;0.40;0.40;;;;;;;15.31;74.47;101517.81;5070524;28;20021;-78
2022/10/25 07:57:43;;;;;;;0.20;0.20;;;;;;;15.41;74.43;101518.41;5073552;28;20036;-79
2022/10/25 08:00:09;;;;;;;0.10;0.10;;;;;;;15.47;74.25;101519.09;5063551;28;20036;-79
2022/10/25 08:02:36;;;;;;;0.15;0.15;;;;;;;15.48;74.13;101514.66;5072464;28;20028;-79
2022/10/25 08:05:02;;;;;;;0.10;0.10;;;;;;;15.53;74.03;101524.25;5054693;28;20044;-78
2022/10/25 08:07:28;;;;;;;0.13;0.13;;;;;;;15.56;73.96;101522.41;5044183;28;20033;-78
2022/10/25 08:09:54;;;;;;;0.40;0.40;;;;;;;15.58;73.92;101520.59;5036536;28;20159;-79
2022/10/25 08:12:20;;;;;;;0.38;0.38;;;;;;;15.61;73.77;101528.50;5046004;28;20052;-79
2022/10/25 08:14:46;;;;;;;1.58;1.48;;;;;;;15.65;73.61;101535.47;5038190;28;20036;-78
2022/10/25 08:17:12;;;;;;;0.65;0.65;;;;;;;15.63;73.55;101540.03;5051307;28;20013;-78
2022/10/25 08:19:38;;;;;;;0.80;0.80;;;;;;;15.72;73.16;101533.53;5047750;28;20500;-78
2022/10/25 08:22:04;;;;;;;0.15;0.15;;;;;;;15.79;73.24;101540.44;5047829;28;20048;-78
2022/10/25 08:24:31;;;;;;;0.10;0.10;;;;;;;15.76;73.30;101552.06;5043717;28;20041;-78
2022/10/25 08:26:57;;;;;;;0.75;0.75;;;;;;;15.76;73.09;101551.19;5047251;28;20117;-79
2022/10/25 08:29:25;;;;;;;0.43;0.43;;;;;;;15.80;73.15;101548.41;5047518;28;20078;-79
2022/10/25 08:31:52;;;;;;;0.10;0.10;;;;;;;15.70;72.91;101546.91;5045408;28;20386;-79
2022/10/25 08:34:18;;;;;;;0.30;0.30;;;;;;;15.72;72.91;101547.75;5047431;28;20033;-79
2022/10/25 08:36:44;;;;;;;0.10;0.10;;;;;;;15.76;72.91;101546.72;5048068;28;20033;-78
2022/10/25 08:39:10;;;;;;;0.80;0.80;;;;;;;15.78;73.20;101560.91;5043741;28;20044;-79
2022/10/25 08:47:24;;;;;;;0.98;0.98;;;;;;;15.87;73.10;101558.94;5057238;28;20146;-78
2022/10/25 08:55:25;;;;;;;0.90;0.50;;;;;;;16.04;72.25;101569.97;5058086;28;20396;-78
2022/10/25 08:57:53;;;;;;;0.15;0.15;;;;;;;15.99;72.53;101562.09;5049057;28;20041;-78
2022/10/25 09:00:22;;;;;;;0.10;0.10;;;;;;;16.05;72.28;101562.81;5050333;28;20021;-78
2022/10/25 09:02:53;;;;;;;0.10;0.10;;;;;;;16.04;72.43;101569.06;5051081;28;20061;-78
2022/10/25 09:13:51;;;;;;;0.43;0.43;;;;;;;16.42;71.56;101567.84;5099230;27;20392;-77
2022/10/25 09:16:39;;;;;;;0.73;0.73;;;;;;;16.53;71.44;101566.63;5077132;28;20428;-78
2022/10/25 09:19:17;;;;;;;0.63;0.63;;;;;;;16.45;70.53;101570.44;5074708;28;20028;-79
2022/10/25 09:21:51;;;;;;;0.25;0.25;;;;;;;16.53;70.30;101570.16;5077368;28;20078;-77
2022/10/25 09:24:47;;;;;;;0.10;0.10;;;;;;;16.63;70.44;101576.09;5082462;28;20033;-78
2022/10/25 09:27:20;;;;;;;0.20;0.20;;;;;;;16.58;70.43;101586.06;5069677;28;20643;-78
2022/10/25 09:29:57;;;;;;;0.10;0.10;;;;;;;16.57;69.93;101587.00;5069107;28;20029;-78
2022/10/25 09:32:49;;;;;;;0.35;0.35;;;;;;;16.59;69.55;101595.84;5081401;28;20021;-79
2022/10/25 09:35:21;;;;;;;5.93;2.05;;;;;;;16.47;70.05;101591.78;5064813;28;20025;-78
2022/10/25 09:37:52;;;;;;;0.10;0.10;;;;;;;16.47;69.86;101589.09;5083601;28;20107;-79
2022/10/25 09:40:21;;;;;;;0.30;0.30;;;;;;;16.44;70.18;101597.25;5082231;28;20059;-78
2022/10/25 09:42:55;;;;;;;0.10;0.10;;;;;;;16.62;70.43;101590.38;5077911;28;20077;-78
2022/10/25 09:45:29;;;;;;;0.57;0.57;;;;;;;16.60;70.07;101605.63;5074548;28;20033;-79
2022/10/25 09:48:15;;;;;;;0.20;0.20;;;;;;;16.64;69.87;101593.91;5078972;28;20540;-79
2022/10/25 09:50:52;;;;;;;0.40;0.40;;;;;;;16.66;69.51;101602.75;5079965;28;20036;-78
2022/10/25 09:53:18;;;;;;;0.22;0.22;;;;;;;16.65;69.90;101603.69;5070099;28;20384;-78
2022/10/25 09:58:29;;;;;;;0.30;0.30;;;;;;;16.81;69.72;101607.59;5076801;27;20422;-78
2022/10/25 10:00:59;;;;;;;1.20;1.10;;;;;;;16.93;69.69;101610.78;5067334;28;20033;-78
2022/10/25 10:03:31;;;;;;;0.63;0.63;;;;;;;16.97;68.68;101616.00;5068551;28;20032;-78
2022/10/25 10:06:07;;;;;;;0.52;0.52;;;;;;;17.11;68.93;101620.88;5068299;28;20024;-79
2022/10/25 10:08:34;;;;;;;0.90;0.90;;;;;;;17.08;68.76;101620.97;5065002;28;20439;-78
2022/10/25 10:11:00;;;;;;;0.20;0.20;;;;;;;17.14;68.24;101623.41;5068930;28;20084;-80
2022/10/25 10:16:36;;;;;;;0.10;0.10;;;;;;;17.32;68.32;101618.38;5075562;27;20414;-78
2022/10/25 10:19:23;;;;;;;0.40;0.40;;;;;;;17.34;67.87;101627.19;5065898;28;20039;-79
2022/10/25 10:21:55;;;;;;;0.10;0.10;;;;;;;17.28;67.86;101616.72;5062688;28;20057;-78
2022/10/25 10:27:07;;;;;;;0.10;0.10;;;;;;;17.34;67.98;101621.84;5051096;28;20384;-79
2022/10/25 10:29:35;;;;;;;;;;;;;;;17.45;67.57;101624.16;5047561;28;20120;-78
2022/10/25 10:32:05;;;;;;;0.10;0.10;;;;;;;17.41;67.64;101626.06;5045476;28;19913;-79
2022/10/25 10:37:21;;;;;;;0.10;0.10;;;;;;;17.58;67.48;101624.56;5051991;28;20366;-79
2022/10/25 10:42:37;;;;;;;0.10;0.10;;;;;;;17.74;67.48;101622.19;5050620;28;20479;-78
2022/10/25 10:50:31;;;;;;;3.60;0.85;;;;;;;17.93;66.61;101622.34;5070886;28;20383;-79
2022/10/25 10:53:16;;;;;;;1.10;1.10;;;;;;;18.05;66.47;101613.88;5050985;28;20039;-79
2022/10/25 10:58:46;;;;;;;1.55;0.65;;;;;;;18.20;65.65;101619.56;5112712;27;20384;-79
2022/10/25 11:01:27;;;;;;;0.10;0.10;;;;;;;18.18;65.64;101619.63;5099908;28;20048;-79
2022/10/25 11:03:57;;;;;;;0.63;0.30;;;;;;;18.23;65.07;101622.13;5101824;28;20386;-79
2022/10/25 11:06:28;;;;;;;0.10;0.10;;;;;;;18.26;64.53;101622.88;5112715;28;20024;-79
2022/10/25 11:12:06;;;;;;;0.20;0.20;;;;;;;18.50;64.27;101627.31;5112011;27;20366;-78
2022/10/25 11:14:33;;;;;;;0.08;0.08;;;;;;;18.55;64.35;101628.00;5107770;28;20076;-79
2022/10/25 11:17:11;;;;;;;0.17;0.17;;;;;;;18.65;63.98;101623.13;5095899;28;20536;-79
2022/10/25 11:20:03;;;;;;;0.10;0.10;;;;;;;18.69;63.73;101636.38;5104715;27;20016;-79
2022/10/25 11:22:56;;;;;;;0.10;0.10;;;;;;;18.71;63.15;101629.09;5112132;28;20031;-78
2022/10/25 11:33:39;;;;;;;0.55;0.55;;;;;;;18.35;64.18;101631.50;5071829;28;20384;-78
2022/10/25 11:36:20;;;;;;;0.13;0.13;;;;;;;18.32;64.92;101636.97;5040129;28;20037;-78
2022/10/25 11:38:59;;;;;;;0.30;0.30;;;;;;;18.27;65.04;101637.19;5047765;28;20565;-78
2022/10/25 11:44:34;;;;;;;0.30;0.30;;;;;;;18.35;65.32;101642.22;5107186;27;20356;-79
2022/10/25 11:58:04;;;;;;;0.52;0.52;;;;;;;18.69;63.80;101636.38;5110580;27;20331;-78
2022/10/25 12:00:44;;;;;;;0.10;0.10;;;;;;;18.62;63.45;101634.88;5101690;28;20036;-77
2022/10/25 12:06:30;;;;;;;0.20;0.20;;;;;;;18.67;63.82;101630.19;5068569;28;20364;-79
2022/10/25 12:09:26;;;;;;;0.08;0.08;;;;;;;18.81;63.71;101626.06;5069590;28;20029;-79
2022/10/25 12:12:00;;;;;;;0.22;0.22;;;;;;;18.86;63.12;101622.22;5063956;28;20045;-79
2022/10/25 12:14:33;;;;;;;0.77;0.75;;;;;;;18.88;62.63;101620.34;5062096;28;20045;-77
2022/10/25 12:17:03;;;;;;;1.50;1.40;;;;;;;18.93;62.68;101628.25;5063328;28;20074;-78
2022/10/25 12:19:35;;;;;;;0.45;0.45;;;;;;;18.98;62.13;101620.88;5067971;28;20032;-78
2022/10/25 12:22:05;;;;;;;0.68;0.68;;;;;;;19.06;61.05;101624.06;5068627;28;20035;-78
2022/10/25 12:24:49;;;;;;;0.65;0.65;;;;;;;19.24;60.80;101618.88;5070203;28;20029;-78
2022/10/25 12:27:21;;;;;;;0.10;0.10;;;;;;;19.45;59.96;101608.09;5064671;28;20037;-78
2022/10/25 12:30:01;;;;;;;0.10;0.10;;;;;;;19.69;60.45;101614.16;5063646;28;20032;-78
2022/10/25 12:35:28;;;;;;;0.20;0.20;;;;;;;19.92;59.32;101621.19;5050052;28;20384;-79
2022/10/25 12:37:59;;;;;;;0.10;0.10;;;;;;;19.85;59.25;101625.09;5049016;28;20136;-79
2022/10/25 12:40:27;;;;;;;0.20;0.20;;;;;;;19.81;58.99;101620.78;5044645;28;20021;-79
2022/10/25 12:43:04;;;;;;;0.10;0.10;;;;;;;19.89;59.47;101621.34;5047131;28;20116;-79
2022/10/25 12:45:50;;;;;;;0.20;0.20;;;;;;;20.00;59.27;101621.69;5044987;28;20091;-79
2022/10/25 12:48:40;;;;;;;0.10;0.10;;;;;;;20.17;57.81;101620.00;5048660;28;20029;-80
2022/10/25 13:02:08;;;;;;;0.10;0.10;;;;;;;20.19;56.82;101626.22;5095169;27;20381;-78
2022/10/25 13:07:34;;;;;;;0.00;0.00;;;;;;;19.89;57.82;101618.66;5101140;27;1162883;-79
2022/10/25 13:10:19;;;;;;;0.10;0.10;;;;;;;19.84;58.03;101624.22;5131653;27;20034;-79
2022/10/25 13:13:14;;;;;;;1.88;1.00;;;;;;;19.86;59.09;101621.47;5118617;27;20031;-78
2022/10/25 13:15:51;;;;;;;0.00;0.00;;;;;;;19.84;58.65;101620.69;5108992;28;20111;-80
2022/10/25 13:21:14;;;;;;;0.40;0.40;;;;;;;19.88;57.52;101617.75;5088065;27;20380;-78
2022/10/25 13:26:24;;;;;;;0.30;0.30;;;;;;;19.75;57.73;101621.06;5084614;28;20336;-79
2022/10/25 13:28:53;;;;;;;0.10;0.10;;;;;;;19.80;57.79;101619.03;5064211;28;20120;-80
2022/10/25 13:39:54;;;;;;;0.10;0.10;;;;;;;20.24;58.17;101602.63;4956320;28;20421;-80
2022/10/25 13:47:47;;;;;;;0.28;0.28;;;;;;;19.95;58.33;101622.84;5112253;27;20400;-79